createdAt,value
2024-02-02T00:04:21.440Z,2.96
2024-02-02T00:09:29.675Z,2.99
2024-02-02T00:14:35.936Z,2.98
2024-02-02T00:19:42.432Z,3.00
2024-02-02T00:24:50.850Z,2.99
2024-02-02T00:29:57.508Z,2.97
2024-02-02T00:35:04.672Z,3.00
2024-02-02T00:40:13.538Z,3.00
2024-02-02T00:45:20.164Z,3.01
2024-02-02T00:50:27.057Z,3.02
2024-02-02T00:55:34.970Z,3.02
2024-02-02T01:00:41.774Z,3.01
2024-02-02T01:05:48.384Z,2.99
2024-02-02T01:10:59.165Z,2.99
2024-02-02T01:16:06.763Z,3.01
2024-02-02T01:21:15.235Z,3.00
2024-02-02T01:26:23.441Z,3.00
2024-02-02T01:31:34.270Z,3.02
2024-02-02T01:36:41.380Z,2.99
2024-02-02T01:41:49.143Z,3.01
2024-02-02T01:46:55.652Z,3.01
2024-02-02T01:52:02.019Z,2.99
2024-02-02T01:57:10.065Z,3.00
2024-02-02T02:02:16.734Z,2.99
2024-02-02T02:07:23.188Z,2.98
2024-02-02T02:12:31.135Z,2.95
2024-02-02T02:17:37.557Z,2.96
2024-02-02T02:23:05.163Z,2.93
2024-02-02T02:28:11.521Z,2.94
2024-02-02T02:33:17.988Z,2.95
2024-02-02T02:38:26.895Z,2.95
2024-02-02T02:43:33.143Z,2.93
2024-02-02T02:48:39.498Z,2.90
2024-02-02T02:53:47.319Z,2.93
2024-02-02T02:58:53.601Z,2.91
2024-02-02T03:03:59.701Z,2.87
2024-02-02T03:09:07.448Z,2.83
2024-02-02T03:14:16.955Z,2.82
2024-02-02T03:19:23.361Z,2.80
2024-02-02T03:24:31.765Z,2.80
2024-02-02T03:29:38.090Z,2.78
2024-02-02T03:34:44.493Z,2.77
2024-02-02T03:39:52.778Z,2.76
2024-02-02T03:45:00.276Z,2.74
2024-02-02T03:50:07.381Z,2.73
2024-02-02T03:55:16.112Z,2.73
2024-02-02T04:00:23.139Z,2.72
2024-02-02T04:05:29.849Z,2.70
2024-02-02T04:10:41.195Z,2.72
2024-02-02T04:15:48.281Z,2.72
2024-02-02T04:20:55.872Z,2.71
2024-02-02T04:26:03.927Z,2.71
2024-02-02T04:31:10.235Z,2.72
2024-02-02T04:36:16.538Z,2.72
2024-02-02T04:41:24.476Z,2.70
2024-02-02T04:46:30.808Z,2.72
2024-02-02T04:51:37.673Z,2.70
2024-02-02T04:56:45.748Z,2.68
2024-02-02T05:01:52.385Z,2.68
2024-02-02T05:06:58.584Z,2.65
2024-02-02T05:12:08.521Z,2.63
2024-02-02T05:17:14.805Z,2.62
2024-02-02T05:22:21.017Z,2.63
2024-02-02T05:27:29.455Z,2.62
2024-02-02T05:32:36.168Z,2.62
2024-02-02T05:37:42.616Z,2.61
2024-02-02T05:42:50.451Z,2.60
2024-02-02T05:47:56.862Z,2.61
2024-02-02T05:53:03.282Z,2.60
2024-02-02T05:58:11.379Z,2.59
2024-02-02T06:03:17.973Z,2.56
2024-02-02T06:08:24.505Z,2.57
2024-02-02T06:13:32.312Z,2.54
2024-02-02T06:18:38.800Z,2.52
2024-02-02T06:23:45.028Z,2.44
2024-02-02T06:28:52.755Z,2.39
2024-02-02T06:33:59.043Z,2.36
2024-02-02T06:39:05.624Z,2.33
2024-02-02T06:44:13.301Z,2.31
2024-02-02T06:49:19.720Z,2.31
2024-02-02T06:54:26.150Z,2.30
2024-02-02T06:59:34.371Z,2.33
2024-02-02T07:04:41.652Z,2.34
2024-02-02T07:09:54.031Z,2.34
2024-02-02T07:15:06.477Z,2.31
2024-02-02T07:20:41.432Z,2.29
2024-02-02T07:25:50.485Z,2.31
2024-02-02T07:30:59.346Z,2.34
2024-02-02T07:36:06.279Z,2.35
2024-02-02T07:41:14.896Z,2.37
2024-02-02T07:46:22.828Z,2.38
2024-02-02T07:51:29.227Z,2.39
2024-02-02T07:56:35.728Z,2.38
2024-02-02T08:01:43.552Z,2.44
2024-02-02T08:06:50.435Z,2.46
2024-02-02T08:11:57.153Z,2.48
2024-02-02T08:17:08.592Z,2.55
2024-02-02T08:22:16.431Z,2.62
2024-02-02T08:27:23.272Z,2.57
2024-02-02T08:32:32.366Z,2.56
2024-02-02T08:37:40.479Z,2.57
2024-02-02T08:42:47.092Z,2.60
2024-02-02T08:47:55.059Z,2.61
2024-02-02T08:53:02.619Z,2.61
2024-02-02T08:58:14.038Z,2.64
2024-02-02T09:03:46.189Z,2.68
2024-02-02T09:08:53.560Z,2.72
2024-02-02T09:14:15.921Z,2.77
2024-02-02T09:19:37.536Z,2.80
2024-02-02T09:24:45.738Z,2.81
2024-02-02T09:29:54.221Z,2.86
2024-02-02T09:35:05.602Z,2.93
2024-02-02T09:41:18.148Z,2.98
2024-02-02T09:46:35.302Z,3.04
2024-02-02T09:51:54.938Z,3.12
2024-02-02T09:57:16.544Z,3.24
2024-02-02T10:02:50.028Z,3.38
2024-02-02T10:08:18.010Z,3.46
2024-02-02T10:13:44.816Z,3.53
2024-02-02T10:19:20.825Z,3.59
2024-02-02T10:25:04.816Z,3.62
2024-02-02T10:30:25.902Z,3.70
2024-02-02T10:35:46.211Z,3.79
2024-02-02T10:41:03.877Z,3.86
2024-02-02T10:46:24.035Z,3.93
2024-02-02T10:51:43.210Z,3.95
2024-02-02T10:57:21.369Z,4.01
2024-02-02T11:02:38.753Z,4.02
2024-02-02T11:07:50.215Z,4.07
2024-02-02T11:13:07.636Z,4.11
2024-02-02T11:18:36.349Z,4.21
2024-02-02T11:23:56.168Z,4.21
2024-02-02T11:29:26.070Z,4.27
2024-02-02T11:34:47.808Z,4.29
2024-02-02T11:40:03.083Z,4.29
2024-02-02T11:45:19.641Z,4.33
2024-02-02T11:50:28.704Z,4.33
2024-02-02T11:55:42.528Z,4.35
2024-02-02T12:01:28.780Z,4.35
2024-02-02T12:06:48.063Z,4.29
2024-02-02T12:11:57.502Z,4.31
2024-02-02T12:17:09.128Z,4.33
2024-02-02T12:22:16.397Z,4.37
2024-02-02T12:27:23.011Z,4.40
2024-02-02T12:32:30.737Z,4.41
2024-02-02T12:37:52.228Z,4.39
2024-02-02T12:43:00.411Z,4.36
2024-02-02T12:48:11.346Z,4.33
2024-02-02T12:53:18.018Z,4.32
2024-02-02T12:58:24.698Z,4.36
2024-02-02T13:03:40.859Z,4.34
2024-02-02T13:08:50.699Z,4.33
2024-02-02T13:14:06.128Z,4.36
2024-02-02T13:19:38.263Z,4.37
2024-02-02T13:24:56.926Z,4.39
2024-02-02T13:30:04.806Z,4.38
2024-02-02T13:35:16.723Z,4.36
2024-02-02T13:40:29.504Z,4.35
2024-02-02T13:45:36.134Z,4.38
2024-02-02T13:51:01.611Z,4.39
2024-02-02T13:56:11.565Z,4.35
2024-02-02T14:01:19.765Z,4.36
2024-02-02T14:06:27.824Z,4.35
2024-02-02T14:11:34.326Z,4.35
2024-02-02T14:16:40.632Z,4.33
2024-02-02T14:21:48.246Z,4.35
2024-02-02T14:26:56.271Z,4.34
2024-02-02T14:32:03.045Z,4.35
2024-02-02T14:37:12.798Z,4.34
2024-02-02T14:42:19.310Z,4.31
2024-02-02T14:47:25.928Z,4.28
2024-02-02T14:52:34.200Z,4.28
2024-02-02T14:57:41.790Z,4.26
2024-02-02T15:02:52.625Z,4.25
2024-02-02T15:08:01.456Z,4.26
2024-02-02T15:13:09.945Z,4.24
2024-02-02T15:18:16.279Z,4.23
2024-02-02T15:23:24.621Z,4.21
2024-02-02T15:28:33.347Z,4.16
2024-02-02T15:33:40.127Z,4.17
2024-02-02T15:39:06.265Z,4.17
2024-02-02T15:44:14.300Z,4.14
2024-02-02T15:49:23.947Z,4.11
2024-02-02T15:54:33.034Z,4.10
2024-02-02T15:59:41.251Z,4.09
2024-02-02T16:04:47.828Z,4.07
2024-02-02T16:09:57.737Z,4.05
2024-02-02T16:15:05.080Z,4.01
2024-02-02T16:20:14.101Z,3.99
2024-02-02T16:25:22.590Z,3.96
2024-02-02T16:30:29.061Z,3.96
2024-02-02T16:35:35.440Z,3.95
2024-02-02T16:40:43.700Z,3.93
2024-02-02T16:45:50.989Z,3.91
2024-02-02T16:50:57.674Z,3.89
2024-02-02T16:56:06.676Z,3.88
2024-02-02T17:01:12.974Z,3.87
2024-02-02T17:06:19.398Z,3.86
2024-02-02T17:11:27.962Z,3.86
2024-02-02T17:16:34.548Z,3.84
2024-02-02T17:21:42.300Z,3.84
2024-02-02T17:26:51.830Z,3.83
2024-02-02T17:31:58.546Z,3.81
2024-02-02T17:37:05.176Z,3.79
2024-02-02T17:42:13.302Z,3.79
2024-02-02T17:47:20.070Z,3.77
2024-02-02T17:52:26.785Z,3.77
2024-02-02T17:57:35.660Z,3.74
2024-02-02T18:02:42.664Z,3.72
2024-02-02T18:07:50.580Z,3.73
2024-02-02T18:13:00.664Z,3.73
2024-02-02T18:18:08.256Z,3.72
2024-02-02T18:23:15.310Z,3.69
2024-02-02T18:28:27.831Z,3.68
2024-02-02T18:33:34.946Z,3.67
2024-02-02T18:38:42.471Z,3.67
2024-02-02T18:43:50.615Z,3.65
2024-02-02T18:48:57.921Z,3.63
2024-02-02T18:54:05.331Z,3.66
2024-02-02T18:59:13.868Z,3.67
2024-02-02T19:04:20.864Z,3.67
2024-02-02T19:09:29.660Z,3.65
2024-02-02T19:14:37.771Z,3.67
2024-02-02T19:19:46.989Z,3.65
2024-02-02T19:24:54.369Z,3.67
2024-02-02T19:30:02.765Z,3.68
2024-02-02T19:35:11.143Z,3.67
2024-02-02T19:40:18.454Z,3.67
2024-02-02T19:45:26.333Z,3.69
2024-02-02T19:50:33.131Z,3.68
2024-02-02T19:55:39.728Z,3.69
2024-02-02T20:00:48.319Z,3.69
2024-02-02T20:05:55.539Z,3.69
2024-02-02T20:11:03.026Z,3.70
2024-02-02T20:16:12.365Z,3.70
2024-02-02T20:21:21.343Z,3.71
2024-02-02T20:26:27.926Z,3.70
2024-02-02T20:31:36.827Z,3.67
2024-02-02T20:36:43.910Z,3.66
2024-02-02T20:41:51.756Z,3.67
2024-02-02T20:47:04.268Z,3.69
2024-02-02T20:52:14.982Z,3.69
2024-02-02T20:57:22.276Z,3.69
2024-02-02T21:02:31.089Z,3.69
2024-02-02T21:07:37.931Z,3.69
2024-02-02T21:12:44.631Z,3.67
2024-02-02T21:17:56.804Z,3.67
2024-02-02T21:23:03.815Z,3.68
2024-02-02T21:28:10.837Z,3.69
2024-02-02T21:33:24.116Z,3.68
2024-02-02T21:38:31.011Z,3.69
2024-02-02T21:43:37.735Z,3.69
2024-02-02T21:48:45.967Z,3.71
2024-02-02T21:53:53.670Z,3.72
2024-02-02T21:59:05.441Z,3.73
2024-02-02T22:04:14.602Z,3.74
2024-02-02T22:09:21.618Z,3.74
2024-02-02T22:14:29.773Z,3.74
2024-02-02T22:19:38.989Z,3.76
2024-02-02T22:24:46.611Z,3.77
2024-02-02T22:29:54.415Z,3.77
2024-02-02T22:35:03.075Z,3.79
2024-02-02T22:40:12.174Z,3.79
2024-02-02T22:45:19.391Z,3.79
2024-02-02T22:50:27.210Z,3.81
2024-02-02T22:55:34.450Z,3.83
2024-02-02T23:00:42.621Z,3.84
2024-02-02T23:05:51.460Z,3.84
2024-02-02T23:10:58.702Z,3.87
2024-02-02T23:16:05.683Z,3.88
2024-02-02T23:21:16.053Z,3.91
2024-02-02T23:26:23.032Z,3.94
2024-02-02T23:31:30.989Z,3.94
2024-02-02T23:36:39.972Z,3.97
2024-02-02T23:41:47.257Z,3.99
2024-02-02T23:46:53.908Z,4.02
2024-02-02T23:52:02.176Z,4.03
2024-02-02T23:57:09.437Z,4.06
